This is the latest recevied weather packets stored in our database for station/object N7JP. If no packets are shown the sender has not sent any weather packets the latest 10 day(s).
| Time | Temp. | Humidity | Pressure | Rain* | Wind** | Luminosity | Snow |
|---|---|---|---|---|---|---|---|
| 1777684727 | 14.44° C | 78% | 1009.6 hPa | 0 mm | - | - | - |
| 1777683827 | 15.56° C | 73% | 1009.6 hPa | 0 mm | - | - | - |
| 1777682928 | 16.67° C | 70% | 1009.7 hPa | 0 mm | - | - | - |
| 1777682019 | 17.78° C | 68% | 1009.8 hPa | 0 mm | - | - | - |
| 1777681117 | 18.33° C | 67% | 1009.7 hPa | 0 mm | - | - | - |
| 1777680217 | 18.33° C | 66% | 1009.6 hPa | 0 mm | - | - | - |
| 1777679315 | 17.78° C | 66% | 1009.5 hPa | 0 mm | - | - | - |
| 1777678404 | 18.33° C | 63% | 1009.6 hPa | 0 mm | - | - | - |
| 1777677495 | 18.33° C | 64% | 1009.8 hPa | 0 mm | - | - | - |
| 1777676570 | 18.89° C | 66% | 1010 hPa | 0 mm | - | - | - |
| 1777675670 | 18.33° C | 67% | 1010.2 hPa | 0 mm | - | - | - |
| 1777674769 | 17.78° C | 66% | 1010.4 hPa | 0 mm | - | - | - |
| 1777673869 | 17.78° C | 70% | 1010.6 hPa | 0 mm | - | - | - |
| 1777672949 | 17.22° C | 71% | 1010.7 hPa | 0 mm | - | - | - |
| 1777672049 | 17.22° C | 70% | 1010.7 hPa | 0 mm | - | - | - |
| 1777671148 | 17.22° C | 70% | 1010.8 hPa | 0 mm | - | - | - |
| 1777670250 | 16.11° C | 76% | 1010.9 hPa | 0 mm | - | - | - |
| 1777669339 | 16.67° C | 74% | 1011 hPa | 0 mm | - | - | - |
| 1777668429 | 16.11° C | 74% | 1011 hPa | 0 mm | - | - | - |
| 1777667509 | 16.11° C | 77% | 1011 hPa | 0 mm | - | - | - |
| 1777666611 | 15.56° C | 79% | 1011.2 hPa | 0 mm | - | - | - |
| 1777665682 | 15° C | 78% | 1011.1 hPa | 0 mm | - | - | - |
| 1777664782 | 15° C | 81% | 1011 hPa | 0 mm | - | - | - |
| 1777663883 | 14.44° C | 80% | 1011.3 hPa | 0 mm | - | - | - |
| 1777662957 | 14.44° C | 82% | 1011.5 hPa | 0 mm | - | - | - |
* Rain latest hour (hover to see other rain measurements)
** Current wind speed in m/s (hover to see current wind gust speed)